Time;durP1;ratioP1;P1;durP2;ratioP2;P2;SDS_P1;SDS_P2;PMS_P1;PMS_P2;Temp;Humidity;BMP_temperature;BMP_pressure;BME280_temperature;BME280_humidity;BME280_pressure;Samples;Min_cycle;Max_cycle;Signal;HPM_P1;HPM_P2
2024/03/04 00:01:37;;;;;;;8.73;4.00;;;9.20;99.90;;;;;;7285936;19;20194;-82
2024/03/04 00:04:03;;;;;;;8.43;4.50;;;9.20;99.90;;;;;;7284495;19;20189;-82
2024/03/04 00:06:29;;;;;;;10.83;4.13;;;9.20;99.90;;;;;;7300152;19;20191;-81
2024/03/04 00:08:55;;;;;;;9.03;4.53;;;9.30;99.90;;;;;;7315361;19;20247;-82
2024/03/04 00:11:21;;;;;;;10.17;5.27;;;9.30;99.90;;;;;;7297177;19;20752;-82
2024/03/04 00:13:47;;;;;;;9.13;5.13;;;9.30;99.90;;;;;;7296726;19;20190;-82
2024/03/04 00:16:13;;;;;;;9.40;4.97;;;9.20;99.90;;;;;;7299116;19;20198;-81
2024/03/04 00:18:40;;;;;;;9.20;4.80;;;9.20;99.90;;;;;;7299243;19;20858;-82
2024/03/04 00:21:06;;;;;;;9.40;4.90;;;9.20;99.90;;;;;;7289281;19;20525;-82
2024/03/04 00:23:33;;;;;;;10.43;5.50;;;9.30;99.90;;;;;;7285086;19;20296;-82
2024/03/04 00:26:00;;;;;;;8.70;5.27;;;9.40;99.90;;;;;;7295992;19;20194;-81
2024/03/04 00:28:26;;;;;;;9.83;5.40;;;9.40;99.90;;;;;;7304120;19;20186;-82
2024/03/04 00:30:52;;;;;;;10.60;5.20;;;9.40;99.90;;;;;;7285492;19;20199;-82
2024/03/04 00:33:21;;;;;;;9.27;5.10;;;9.50;99.90;;;;;;7284511;19;20245;-82
2024/03/04 00:35:46;;;;;;;10.47;5.13;;;9.50;99.90;;;;;;7282888;19;20185;-82
2024/03/04 00:38:12;;;;;;;10.33;5.23;;;9.50;99.90;;;;;;7283031;19;20194;-82
2024/03/04 00:40:38;;;;;;;10.07;5.33;;;9.50;99.90;;;;;;7282592;19;20186;-82
2024/03/04 00:43:04;;;;;;;12.87;5.40;;;9.50;99.90;;;;;;7282654;19;20191;-82
2024/03/04 00:45:31;;;;;;;11.33;5.90;;;9.50;99.90;;;;;;7282576;19;20179;-81
2024/03/04 00:47:57;;;;;;;10.07;5.70;;;9.50;99.90;;;;;;7304502;19;20186;-82
2024/03/04 00:50:26;;;;;;;10.97;5.60;;;9.60;99.90;;;;;;7280290;19;20222;-82
2024/03/04 00:52:51;;;;;;;13.90;6.00;;;9.70;99.90;;;;;;7282098;19;20186;-82
2024/03/04 00:55:17;;;;;;;11.70;5.60;;;9.60;99.90;;;;;;7281943;19;20195;-82
2024/03/04 00:57:43;;;;;;;10.30;5.80;;;9.60;99.90;;;;;;7283867;19;20760;-82
2024/03/04 01:00:14;;;;;;;13.00;6.20;;;9.60;99.90;;;;;;7283121;19;20209;-82
2024/03/04 01:02:41;;;;;;;10.63;6.00;;;9.60;99.90;;;;;;7284814;19;20528;-82
2024/03/04 01:05:07;;;;;;;12.30;6.60;;;9.60;99.90;;;;;;7283399;19;20715;-82
2024/03/04 01:07:33;;;;;;;11.37;6.93;;;9.50;99.90;;;;;;7284794;19;20278;-82
2024/03/04 01:09:59;;;;;;;10.17;6.10;;;9.60;99.90;;;;;;7290363;19;20189;-82
2024/03/04 01:12:25;;;;;;;10.87;6.93;;;9.70;99.90;;;;;;7303201;19;20290;-82
2024/03/04 01:14:51;;;;;;;10.80;6.27;;;9.70;99.90;;;;;;7283146;19;20196;-82
2024/03/04 01:17:17;;;;;;;13.00;6.80;;;9.70;99.90;;;;;;7283292;19;20201;-82
2024/03/04 01:19:46;;;;;;;11.03;6.57;;;9.70;99.90;;;;;;7281182;19;20199;-82
2024/03/04 01:22:16;;;;;;;11.57;6.77;;;9.70;99.90;;;;;;7282884;19;20281;-82
2024/03/04 01:24:43;;;;;;;12.47;6.60;;;9.70;99.90;;;;;;7284397;19;20272;-82
2024/03/04 01:27:12;;;;;;;13.60;7.23;;;9.70;99.90;;;;;;7280669;19;20202;-82
2024/03/04 01:29:38;;;;;;;12.57;6.90;;;9.70;99.90;;;;;;7281860;19;20191;-83
2024/03/04 01:32:05;;;;;;;11.77;7.03;;;9.70;99.90;;;;;;7282646;19;20275;-82
2024/03/04 01:34:30;;;;;;;11.40;7.03;;;9.70;99.90;;;;;;7286279;19;20200;-81
2024/03/04 01:36:56;;;;;;;11.90;7.03;;;9.70;99.90;;;;;;7305699;19;20211;-82
2024/03/04 01:39:22;;;;;;;12.40;7.33;;;9.80;99.90;;;;;;7281558;19;20248;-82
2024/03/04 01:41:48;;;;;;;11.67;7.20;;;9.70;99.90;;;;;;7280713;19;20330;-82
2024/03/04 01:44:13;;;;;;;12.03;7.10;;;9.60;99.90;;;;;;7281969;19;20263;-82
2024/03/04 01:46:42;;;;;;;12.80;7.07;;;9.60;99.90;;;;;;7281087;19;20199;-82
2024/03/04 01:49:08;;;;;;;14.40;7.20;;;9.50;99.90;;;;;;7282826;19;20718;-82
2024/03/04 01:51:35;;;;;;;13.63;7.73;;;9.50;99.90;;;;;;7281424;19;20654;-82
2024/03/04 01:54:01;;;;;;;11.97;7.00;;;9.50;99.90;;;;;;7281380;19;20665;-81
2024/03/04 01:56:29;;;;;;;12.13;6.83;;;9.40;99.90;;;;;;7304046;19;20199;-82
2024/03/04 01:58:55;;;;;;;11.30;6.97;;;9.40;99.90;;;;;;7281346;19;20195;-82
2024/03/04 02:01:21;;;;;;;12.90;7.27;;;9.50;99.90;;;;;;7280356;19;20607;-82
2024/03/04 02:03:48;;;;;;;13.27;7.50;;;9.50;99.90;;;;;;7281548;19;20191;-82
2024/03/04 02:06:15;;;;;;;14.37;7.23;;;9.60;99.90;;;;;;7286253;19;20669;-82
2024/03/04 02:08:41;;;;;;;13.30;7.37;;;9.60;99.90;;;;;;7288392;19;20194;-82
2024/03/04 02:11:07;;;;;;;13.13;7.80;;;9.50;99.90;;;;;;7287680;19;20591;-82
2024/03/04 02:13:33;;;;;;;12.60;7.73;;;9.50;99.90;;;;;;7287282;19;20263;-81
2024/03/04 02:16:00;;;;;;;14.73;8.00;;;9.40;99.90;;;;;;7301499;19;20193;-81
2024/03/04 02:18:25;;;;;;;13.00;7.87;;;9.30;99.90;;;;;;7311004;19;20188;-82
2024/03/04 02:20:57;;;;;;;14.43;7.90;;;9.40;99.90;;;;;;7290946;19;20209;-82
2024/03/04 02:23:23;;;;;;;13.57;8.30;;;9.30;99.90;;;;;;7291851;19;20228;-82
2024/03/04 02:25:57;;;;;;;13.40;8.33;;;9.40;99.90;;;;;;7292776;19;20205;-82
2024/03/04 02:28:25;;;;;;;14.17;8.43;;;9.30;99.90;;;;;;7289016;19;20969;-82
2024/03/04 02:30:51;;;;;;;14.17;8.57;;;9.30;99.90;;;;;;7286717;19;20193;-82
2024/03/04 02:33:21;;;;;;;14.43;9.27;;;9.30;99.90;;;;;;7287059;19;20194;-82
2024/03/04 02:35:49;;;;;;;12.83;8.70;;;9.20;99.90;;;;;;7288170;19;20196;-82
2024/03/04 02:38:17;;;;;;;16.23;9.73;;;9.20;99.90;;;;;;7286769;19;20193;-82
2024/03/04 02:40:43;;;;;;;14.53;9.23;;;9.20;99.90;;;;;;7287720;19;20214;-82
2024/03/04 02:43:11;;;;;;;16.00;9.80;;;9.20;99.90;;;;;;7287058;19;20192;-82
2024/03/04 02:45:38;;;;;;;13.17;9.33;;;9.20;99.90;;;;;;7287208;19;20553;-81
2024/03/04 02:48:07;;;;;;;17.17;9.80;;;9.20;99.90;;;;;;7287944;19;20205;-82
2024/03/04 02:50:36;;;;;;;15.33;9.20;;;9.20;99.90;;;;;;7287184;19;20182;-81
2024/03/04 02:53:03;;;;;;;15.97;10.20;;;9.20;99.90;;;;;;7286630;19;20207;-81
2024/03/04 02:55:29;;;;;;;14.90;9.87;;;9.30;99.90;;;;;;7301188;19;20810;-81
2024/03/04 02:57:55;;;;;;;16.87;10.40;;;9.30;99.90;;;;;;7304206;19;20197;-82
2024/03/04 03:00:20;;;;;;;14.37;10.43;;;9.30;99.90;;;;;;7285391;19;21049;-82
2024/03/04 03:02:46;;;;;;;16.80;11.13;;;9.30;99.90;;;;;;7285846;19;20197;-82
2024/03/04 03:05:12;;;;;;;17.87;11.37;;;9.20;99.90;;;;;;7287440;19;20186;-82
2024/03/04 03:07:38;;;;;;;17.43;11.13;;;9.20;99.90;;;;;;7287116;19;20199;-83
2024/03/04 03:10:05;;;;;;;18.63;11.53;;;9.30;99.90;;;;;;7286076;19;20186;-82
2024/03/04 03:12:30;;;;;;;19.77;12.33;;;9.20;99.90;;;;;;7286774;19;20190;-81
2024/03/04 03:14:57;;;;;;;19.47;11.70;;;9.20;99.90;;;;;;7306926;19;20677;-83
2024/03/04 03:17:24;;;;;;;17.53;11.50;;;9.10;99.90;;;;;;7283862;19;20182;-82
2024/03/04 03:19:51;;;;;;;18.00;12.63;;;9.00;99.90;;;;;;7285047;19;20335;-82
2024/03/04 03:22:17;;;;;;;18.13;11.77;;;9.10;99.90;;;;;;7285343;19;20191;-82
2024/03/04 03:24:43;;;;;;;18.80;12.93;;;9.10;99.90;;;;;;7284786;19;20669;-82
2024/03/04 03:27:10;;;;;;;20.70;13.43;;;9.00;99.90;;;;;;7283799;19;20190;-82
2024/03/04 03:29:36;;;;;;;19.70;13.27;;;8.90;99.90;;;;;;7285314;19;20194;-82
2024/03/04 03:32:02;;;;;;;20.50;14.30;;;8.90;99.90;;;;;;7284970;19;20654;-81
2024/03/04 03:34:28;;;;;;;20.83;14.33;;;8.90;99.90;;;;;;7307034;19;20212;-82
2024/03/04 03:36:54;;;;;;;25.13;14.63;;;8.80;99.90;;;;;;7286855;19;20194;-82
2024/03/04 03:39:19;;;;;;;21.77;15.10;;;8.80;99.90;;;;;;7283900;19;20178;-82
2024/03/04 03:41:46;;;;;;;22.77;15.23;;;8.80;99.90;;;;;;7285800;19;20261;-81
2024/03/04 03:44:12;;;;;;;22.17;15.73;;;8.80;99.90;;;;;;7285999;19;20684;-82
2024/03/04 03:46:37;;;;;;;22.53;15.67;;;8.90;99.90;;;;;;7286360;19;20185;-82
2024/03/04 03:49:03;;;;;;;25.17;16.43;;;8.90;99.90;;;;;;7288944;19;20260;-82
2024/03/04 03:51:29;;;;;;;23.57;16.87;;;8.90;99.90;;;;;;7301463;19;20199;-80
2024/03/04 03:53:55;;;;;;;24.03;17.07;;;8.90;99.90;;;;;;7301310;19;20681;-82
2024/03/04 03:56:21;;;;;;;24.33;17.57;;;8.90;99.90;;;;;;7285945;19;20193;-82
2024/03/04 03:58:50;;;;;;;22.50;15.80;;;8.90;99.90;;;;;;7285897;19;20186;-82
2024/03/04 04:01:16;;;;;;;27.13;18.10;;;8.90;99.90;;;;;;7283513;19;20197;-82
2024/03/04 04:03:42;;;;;;;24.07;18.20;;;8.90;99.90;;;;;;7285316;19;20558;-82
2024/03/04 04:06:07;;;;;;;28.53;19.20;;;8.80;99.90;;;;;;7285223;19;20205;-82
2024/03/04 04:08:33;;;;;;;29.10;18.80;;;8.80;99.90;;;;;;7283149;19;20190;-81
2024/03/04 04:10:59;;;;;;;27.30;18.50;;;8.80;99.90;;;;;;7296701;19;20539;-81
2024/03/04 04:13:25;;;;;;;27.33;18.97;;;8.80;99.90;;;;;;7306418;19;20186;-82
2024/03/04 04:15:51;;;;;;;27.50;19.53;;;8.70;99.90;;;;;;7285824;19;20206;-82
2024/03/04 04:18:17;;;;;;;28.70;19.57;;;8.80;99.90;;;;;;7285533;19;20193;-82
2024/03/04 04:20:44;;;;;;;28.47;20.33;;;8.80;99.90;;;;;;7284343;19;20188;-81
2024/03/04 04:23:11;;;;;;;28.27;20.20;;;8.80;99.90;;;;;;7284105;19;20541;-82
2024/03/04 04:25:37;;;;;;;32.13;21.30;;;8.80;99.90;;;;;;7283601;19;20185;-82
2024/03/04 04:28:03;;;;;;;31.37;19.43;;;8.80;99.90;;;;;;7283458;19;20192;-81
2024/03/04 04:30:29;;;;;;;32.40;20.70;;;8.60;99.90;;;;;;7298629;19;20530;-81
2024/03/04 04:32:55;;;;;;;28.73;20.27;;;8.50;99.90;;;;;;7298536;19;20193;-82
2024/03/04 04:35:21;;;;;;;30.63;20.07;;;8.50;99.90;;;;;;7283894;19;20206;-82
2024/03/04 04:37:47;;;;;;;29.80;20.83;;;8.40;99.90;;;;;;7284862;19;20189;-81
2024/03/04 04:40:19;;;;;;;29.27;20.47;;;8.40;99.90;;;;;;7283337;19;20192;-82
2024/03/04 04:42:44;;;;;;;30.20;20.63;;;8.40;99.90;;;;;;7282052;19;20617;-81
2024/03/04 04:45:10;;;;;;;31.23;20.63;;;8.30;99.90;;;;;;7283448;19;20215;-81
2024/03/04 04:47:36;;;;;;;31.40;21.17;;;8.20;99.90;;;;;;7282692;19;20196;-82
2024/03/04 04:50:03;;;;;;;33.63;20.60;;;8.20;99.90;;;;;;7282572;19;20188;-82
2024/03/04 04:52:29;;;;;;;31.70;21.80;;;8.30;99.90;;;;;;7304651;19;20188;-80
2024/03/04 04:54:55;;;;;;;31.73;21.07;;;8.50;99.90;;;;;;7283375;19;20185;-81
2024/03/04 04:57:21;;;;;;;31.57;21.13;;;8.50;99.90;;;;;;7282978;19;20202;-82
2024/03/04 04:59:47;;;;;;;31.20;22.80;;;8.50;99.90;;;;;;7281314;19;20875;-81
2024/03/04 05:02:13;;;;;;;32.07;22.07;;;8.60;99.90;;;;;;7282574;19;20191;-82
2024/03/04 05:04:39;;;;;;;34.57;23.47;;;8.60;99.90;;;;;;7282535;19;20209;-82
2024/03/04 05:07:05;;;;;;;36.57;25.10;;;8.70;99.90;;;;;;7282420;19;20298;-81
2024/03/04 05:09:30;;;;;;;35.80;25.37;;;8.80;99.90;;;;;;7282877;19;20192;-81
2024/03/04 05:11:56;;;;;;;33.40;24.47;;;8.80;99.90;;;;;;7303779;19;20191;-82
2024/03/04 05:14:22;;;;;;;36.70;25.13;;;8.70;99.90;;;;;;7283505;19;20185;-82
2024/03/04 05:16:48;;;;;;;35.53;25.20;;;8.60;99.90;;;;;;7283694;19;20250;-81
2024/03/04 05:19:15;;;;;;;35.10;24.67;;;8.60;99.90;;;;;;7282489;19;20692;-81
2024/03/04 05:21:40;;;;;;;37.23;24.20;;;8.60;99.90;;;;;;7281990;19;20193;-82
2024/03/04 05:24:06;;;;;;;42.23;25.00;;;8.60;99.90;;;;;;7283302;19;20645;-81
2024/03/04 05:26:32;;;;;;;40.03;26.13;;;8.60;99.90;;;;;;7282183;19;20190;-81
2024/03/04 05:29:00;;;;;;;36.67;25.00;;;8.70;99.90;;;;;;7303682;19;20218;-81
2024/03/04 05:31:25;;;;;;;39.77;25.77;;;8.80;99.90;;;;;;7282637;19;20201;-81
2024/03/04 05:33:51;;;;;;;38.83;25.23;;;8.70;99.90;;;;;;7283233;19;20190;-81
2024/03/04 05:36:19;;;;;;;36.13;25.07;;;8.60;99.90;;;;;;7281997;19;20310;-81
2024/03/04 05:38:45;;;;;;;36.63;25.07;;;8.70;99.90;;;;;;7281922;19;20657;-80
2024/03/04 05:41:10;;;;;;;39.30;25.50;;;8.60;99.90;;;;;;7287051;19;20201;-81
2024/03/04 05:43:36;;;;;;;42.90;26.27;;;8.60;99.90;;;;;;7288438;19;20198;-79
2024/03/04 05:46:03;;;;;;;36.43;24.33;;;8.60;99.90;;;;;;7288193;19;20204;-80
2024/03/04 05:48:29;;;;;;;40.70;23.77;;;8.60;99.90;;;;;;7311857;19;20619;-80
2024/03/04 05:50:56;;;;;;;35.33;24.50;;;8.60;99.90;;;;;;7288262;19;20201;-79
2024/03/04 05:53:23;;;;;;;35.57;25.17;;;8.50;99.90;;;;;;7288582;19;20286;-79
2024/03/04 05:55:49;;;;;;;38.20;25.10;;;8.50;99.90;;;;;;7288495;19;20315;-79
2024/03/04 05:58:15;;;;;;;39.37;24.57;;;8.50;99.90;;;;;;7288228;19;20570;-79
2024/03/04 06:00:42;;;;;;;38.23;23.70;;;8.60;99.90;;;;;;7287816;19;20539;-79
2024/03/04 06:03:08;;;;;;;41.20;25.57;;;8.50;99.90;;;;;;7288313;19;20213;-79
2024/03/04 06:05:34;;;;;;;37.97;24.60;;;8.50;99.90;;;;;;7289080;19;20180;-78
2024/03/04 06:08:01;;;;;;;39.37;24.87;;;8.50;99.90;;;;;;7304092;19;20191;-79
2024/03/04 06:10:28;;;;;;;34.73;24.90;;;8.60;99.90;;;;;;7309091;19;20548;-80
2024/03/04 06:12:54;;;;;;;38.00;24.87;;;8.50;99.90;;;;;;7288386;19;20203;-80
2024/03/04 06:15:21;;;;;;;37.50;23.83;;;8.50;99.90;;;;;;7290087;19;21141;-79
2024/03/04 06:17:47;;;;;;;39.70;26.17;;;8.50;99.90;;;;;;7288230;19;20199;-79
2024/03/04 06:20:13;;;;;;;38.33;24.60;;;8.40;99.90;;;;;;7287757;19;20200;-85
2024/03/04 06:22:39;;;;;;;39.20;25.67;;;8.40;99.90;;;;;;7284299;19;20197;-81
2024/03/04 06:25:06;;;;;;;38.27;25.03;;;8.40;99.90;;;;;;7286878;19;20932;-82
2024/03/04 06:27:33;;;;;;;41.43;25.97;;;8.40;99.90;;;;;;7286228;19;20188;-81
2024/03/04 06:30:00;;;;;;;38.70;25.23;;;8.40;99.90;;;;;;7305236;19;20197;-81
2024/03/04 06:32:26;;;;;;;44.60;26.13;;;8.40;99.90;;;;;;7310172;19;20185;-82
2024/03/04 06:34:52;;;;;;;40.13;25.43;;;8.30;99.90;;;;;;7287518;19;20203;-82
2024/03/04 06:37:17;;;;;;;39.17;24.60;;;8.30;99.90;;;;;;7283558;19;20209;-82
2024/03/04 06:39:46;;;;;;;37.13;25.23;;;8.30;99.90;;;;;;7284944;19;20665;-81
2024/03/04 06:42:12;;;;;;;41.07;25.23;;;8.30;99.90;;;;;;7286114;19;20210;-82
2024/03/04 06:44:37;;;;;;;41.20;25.70;;;8.40;99.90;;;;;;7284598;19;20205;-81
2024/03/04 06:47:03;;;;;;;42.37;25.20;;;8.40;99.90;;;;;;7284952;19;20183;-83
2024/03/04 06:49:29;;;;;;;39.90;25.50;;;8.60;99.90;;;;;;7305245;19;20291;-79
2024/03/04 06:51:55;;;;;;;40.00;25.30;;;8.60;99.90;;;;;;7294986;19;20191;-82
2024/03/04 06:54:20;;;;;;;42.33;25.23;;;8.70;99.90;;;;;;7288577;19;20211;-82
2024/03/04 06:56:46;;;;;;;42.63;26.03;;;8.80;99.90;;;;;;7286878;19;20669;-82
2024/03/04 06:59:12;;;;;;;39.37;24.67;;;8.60;99.90;;;;;;7287048;19;20200;-82
2024/03/04 07:01:37;;;;;;;36.00;23.00;;;8.70;99.90;;;;;;7285217;19;20209;-82
2024/03/04 07:04:03;;;;;;;34.13;22.87;;;8.80;99.90;;;;;;7286962;19;20193;-76
2024/03/04 07:06:29;;;;;;;35.60;23.17;;;8.90;99.90;;;;;;7303214;19;20205;-75
2024/03/04 07:08:56;;;;;;;36.83;22.27;;;8.90;99.90;;;;;;7300445;19;20200;-77
2024/03/04 07:11:22;;;;;;;36.10;21.47;;;9.00;99.90;;;;;;7284394;19;20276;-77
2024/03/04 07:13:48;;;;;;;34.13;22.27;;;9.00;99.90;;;;;;7287411;19;20321;-77
2024/03/04 07:16:17;;;;;;;37.27;21.97;;;9.00;99.90;;;;;;7285809;19;20202;-77
2024/03/04 07:18:43;;;;;;;33.70;22.67;;;9.10;99.90;;;;;;7286572;19;20193;-76
2024/03/04 07:21:17;;;;;;;34.03;22.67;;;9.10;99.90;;;;;;7284004;19;20194;-76
2024/03/04 07:23:43;;;;;;;31.10;20.73;;;9.10;99.90;;;;;;7285902;19;20205;-77
2024/03/04 07:26:10;;;;;;;36.33;21.27;;;9.20;99.90;;;;;;7283100;19;20289;-79
2024/03/04 07:28:45;;;;;;;32.07;20.27;;;9.30;99.90;;;;;;7283845;19;20195;-76
2024/03/04 07:31:11;;;;;;;31.20;19.53;;;9.60;99.90;;;;;;7282845;19;20197;-77
2024/03/04 07:33:36;;;;;;;31.07;20.43;;;9.50;99.90;;;;;;7284989;19;20215;-77
2024/03/04 07:36:03;;;;;;;30.80;20.10;;;9.30;99.90;;;;;;7283811;19;20187;-77
2024/03/04 07:38:28;;;;;;;30.97;19.53;;;9.30;99.90;;;;;;7306035;19;20649;-77
2024/03/04 07:40:54;;;;;;;31.00;19.97;;;9.30;99.90;;;;;;7284699;19;20207;-77
2024/03/04 07:43:20;;;;;;;33.23;20.37;;;9.20;99.90;;;;;;7284525;19;20191;-77
2024/03/04 07:45:46;;;;;;;36.70;20.57;;;9.10;99.90;;;;;;7284773;19;20198;-77
2024/03/04 07:48:11;;;;;;;33.37;20.57;;;9.10;99.90;;;;;;7284298;19;20207;-77
2024/03/04 07:50:37;;;;;;;34.13;20.67;;;9.10;99.90;;;;;;7284862;19;20199;-77
2024/03/04 07:53:03;;;;;;;33.13;19.93;;;9.10;99.90;;;;;;7284040;19;20204;-76
2024/03/04 07:55:29;;;;;;;36.77;21.77;;;9.20;99.90;;;;;;7306760;19;20196;-77
2024/03/04 07:57:54;;;;;;;31.27;20.97;;;9.30;99.90;;;;;;7284310;19;20194;-77
2024/03/04 08:00:20;;;;;;;36.50;21.63;;;9.50;99.90;;;;;;7278142;19;20299;-77
2024/03/04 08:02:46;;;;;;;35.27;22.30;;;9.60;99.90;;;;;;7282253;19;20195;-77
2024/03/04 08:05:12;;;;;;;38.47;21.17;;;9.70;99.90;;;;;;7283519;19;20199;-77
2024/03/04 08:07:39;;;;;;;33.90;20.73;;;9.70;99.90;;;;;;7284025;19;20223;-76
2024/03/04 08:10:09;;;;;;;37.67;20.27;;;10.00;99.90;;;;;;7284481;19;20722;-76
2024/03/04 08:12:35;;;;;;;31.53;19.33;;;10.10;99.90;;;;;;7283699;19;20208;-76
2024/03/04 08:15:02;;;;;;;34.40;19.70;;;10.30;99.90;;;;;;7291263;19;20546;-76
2024/03/04 08:17:27;;;;;;;39.23;20.13;;;10.50;99.90;;;;;;7305830;19;20218;-77
2024/03/04 08:19:56;;;;;;;30.97;18.53;;;10.80;99.90;;;;;;7281663;19;20191;-77
2024/03/04 08:22:22;;;;;;;32.37;18.17;;;11.00;99.90;;;;;;7282509;19;20204;-77
2024/03/04 08:24:49;;;;;;;29.10;19.00;;;11.30;99.90;;;;;;7284258;19;20216;-77
2024/03/04 08:27:15;;;;;;;28.10;18.30;;;11.40;99.90;;;;;;7284034;19;20191;-78
2024/03/04 08:29:41;;;;;;;28.37;17.37;;;11.70;99.90;;;;;;7283007;19;20570;-78
2024/03/04 08:32:07;;;;;;;32.70;19.13;;;11.90;99.90;;;;;;7283490;19;20197;-78
2024/03/04 08:34:33;;;;;;;29.80;17.33;;;11.80;99.90;;;;;;7288249;19;20196;-77
2024/03/04 08:37:00;;;;;;;28.70;17.97;;;11.90;99.90;;;;;;7301418;19;20222;-77
2024/03/04 08:39:25;;;;;;;29.73;17.10;;;12.10;99.90;;;;;;7283551;19;21017;-78
2024/03/04 08:41:51;;;;;;;27.30;17.40;;;12.30;99.90;;;;;;7283017;19;20190;-77
2024/03/04 08:44:24;;;;;;;28.77;16.00;;;12.60;99.90;;;;;;7284416;19;20722;-78
2024/03/04 08:46:57;;;;;;;22.57;14.87;;;12.90;99.90;;;;;;7285020;19;20909;-78
2024/03/04 08:49:23;;;;;;;23.60;15.40;;;13.00;99.90;;;;;;7283497;19;20191;-78
2024/03/04 08:51:49;;;;;;;22.77;13.43;;;13.30;99.90;;;;;;7282226;19;21949;-78
2024/03/04 08:54:15;;;;;;;23.27;14.63;;;13.30;99.90;;;;;;7282817;19;20705;-77
2024/03/04 08:56:41;;;;;;;23.20;14.00;;;13.50;99.90;;;;;;7282009;19;20195;-76
2024/03/04 08:59:07;;;;;;;24.63;15.13;;;13.50;99.90;;;;;;7282921;19;20642;-76
2024/03/04 09:01:32;;;;;;;20.27;13.27;;;13.40;99.90;;;;;;7281516;19;20259;-77
2024/03/04 09:03:58;;;;;;;19.23;11.73;;;13.40;99.90;;;;;;7303868;19;20555;-77
2024/03/04 09:06:25;;;;;;;19.47;12.27;;;13.40;99.90;;;;;;7282009;19;20202;-76
2024/03/04 09:08:50;;;;;;;23.50;13.93;;;13.40;99.90;;;;;;7282089;19;20192;-76
2024/03/04 09:11:17;;;;;;;24.97;13.57;;;13.40;99.90;;;;;;7282560;19;20257;-76
2024/03/04 09:13:43;;;;;;;25.87;12.70;;;13.40;99.90;;;;;;7282829;19;20552;-76
2024/03/04 09:16:09;;;;;;;23.90;11.43;;;13.40;99.90;;;;;;7284299;19;20619;-77
2024/03/04 09:18:38;;;;;;;21.07;12.03;;;13.30;99.90;;;;;;7287872;19;20217;-76
2024/03/04 09:21:07;;;;;;;19.17;10.33;;;13.20;99.90;;;;;;7287391;19;20177;-76
2024/03/04 09:23:33;;;;;;;23.07;13.47;;;12.90;99.90;;;;;;7286137;19;20197;-75
2024/03/04 09:25:58;;;;;;;26.43;13.57;;;12.80;99.90;;;;;;7309654;19;20185;-76
2024/03/04 09:28:24;;;;;;;23.10;10.57;;;12.80;99.90;;;;;;7287217;19;20285;-76
2024/03/04 09:30:50;;;;;;;23.30;12.83;;;12.60;99.90;;;;;;7288119;19;20203;-78
2024/03/04 09:33:16;;;;;;;19.53;10.63;;;12.50;99.90;;;;;;7288071;19;20669;-76
2024/03/04 09:35:42;;;;;;;19.97;10.87;;;12.40;99.90;;;;;;7287525;19;20193;-76
2024/03/04 09:38:08;;;;;;;22.13;11.10;;;12.50;99.90;;;;;;7287385;19;20185;-76
2024/03/04 09:40:34;;;;;;;18.90;9.33;;;12.30;99.90;;;;;;7287730;19;20192;-76
2024/03/04 09:43:00;;;;;;;21.97;9.63;;;12.40;99.90;;;;;;7305814;19;20211;-75
2024/03/04 09:45:28;;;;;;;14.30;8.23;;;12.40;99.90;;;;;;7303430;19;20681;-77
2024/03/04 09:47:58;;;;;;;18.57;9.67;;;12.40;99.90;;;;;;7287315;19;20196;-77
2024/03/04 09:50:24;;;;;;;18.70;9.83;;;12.30;99.90;;;;;;7286136;19;20712;-77
2024/03/04 09:52:53;;;;;;;15.93;8.87;;;12.30;99.90;;;;;;7287347;19;20198;-77
2024/03/04 09:55:19;;;;;;;16.17;8.67;;;12.30;99.90;;;;;;7288446;19;20281;-77
2024/03/04 09:57:46;;;;;;;15.47;8.20;;;11.90;99.90;;;;;;7285037;19;21009;-77
2024/03/04 10:00:16;;;;;;;19.60;8.47;;;11.50;99.90;;;;;;7286216;19;20197;-77
2024/03/04 10:02:43;;;;;;;17.87;9.13;;;11.50;99.90;;;;;;7288000;19;20273;-77
2024/03/04 10:05:10;;;;;;;18.90;7.83;;;11.60;99.90;;;;;;7288458;19;20531;-77
2024/03/04 10:07:36;;;;;;;16.03;6.60;;;11.80;99.90;;;;;;7286751;19;21032;-77
2024/03/04 10:10:03;;;;;;;13.10;5.93;;;12.00;99.90;;;;;;7286650;19;20201;-76
2024/03/04 10:12:29;;;;;;;14.20;6.13;;;13.20;99.90;;;;;;7309119;19;20295;-77
2024/03/04 10:15:03;;;;;;;11.83;5.50;;;15.20;99.90;;;;;;7287273;19;20218;-77
2024/03/04 10:17:29;;;;;;;12.87;6.03;;;16.70;99.90;;;;;;7288105;19;20192;-77
2024/03/04 10:20:05;;;;;;;12.90;6.17;;;17.40;99.90;;;;;;7285739;19;20206;-77
2024/03/04 10:22:35;;;;;;;11.57;5.03;;;19.60;99.90;;;;;;7277931;19;20670;-76
2024/03/04 10:25:08;;;;;;;11.87;4.50;;;20.90;99.90;;;;;;7301534;19;20258;-76
2024/03/04 10:27:48;;;;;;;9.03;4.60;;;20.60;99.90;;;;;;7286005;19;20200;-77
2024/03/04 10:30:15;;;;;;;13.40;4.53;;;21.90;99.90;;;;;;7284973;19;20688;-77
2024/03/04 10:32:50;;;;;;;10.70;5.00;;;21.50;99.90;;;;;;7286052;19;20249;-77
2024/03/04 10:35:17;;;;;;;11.80;5.07;;;20.70;99.90;;;;;;7284892;19;20211;-78
2024/03/04 10:37:43;;;;;;;11.23;5.37;;;20.40;99.90;;;;;;7284103;19;20194;-77
2024/03/04 10:40:10;;;;;;;12.53;4.90;;;19.90;99.90;;;;;;7284402;19;20196;-77
2024/03/04 10:42:40;;;;;;;10.23;5.10;;;19.00;99.90;;;;;;7282638;19;20193;-77
2024/03/04 10:45:08;;;;;;;11.57;4.90;;;19.10;99.90;;;;;;7281450;19;20187;-76
2024/03/04 10:47:39;;;;;;;10.73;4.73;;;20.50;99.90;;;;;;7283101;19;20183;-77
2024/03/04 10:50:05;;;;;;;7.33;4.53;;;21.50;99.90;;;;;;7284733;19;20179;-77
2024/03/04 10:52:31;;;;;;;9.07;3.93;;;22.80;99.90;;;;;;7292653;19;20806;-77
2024/03/04 10:54:58;;;;;;;9.93;4.10;;;23.80;98.80;;;;;;7305298;19;20210;-77
2024/03/04 10:57:26;;;;;;;8.33;3.90;;;24.80;96.40;;;;;;7284064;19;20267;-78
2024/03/04 10:59:55;;;;;;;6.97;3.00;;;26.00;93.00;;;;;;7284399;19;20237;-78
2024/03/04 11:02:27;;;;;;;10.63;3.90;;;26.10;84.20;;;;;;7284776;19;20194;-78
2024/03/04 11:04:55;;;;;;;10.23;4.07;;;26.10;84.40;;;;;;7283637;19;20640;-78
2024/03/04 11:07:26;;;;;;;5.97;3.33;;;26.10;80.40;;;;;;7283809;19;20268;-77
2024/03/04 11:09:55;;;;;;;10.75;3.50;;;26.50;80.30;;;;;;7281620;19;20704;-78
2024/03/04 11:12:25;;;;;;;7.95;3.35;;;26.70;78.40;;;;;;7284024;19;20178;-78
2024/03/04 11:15:01;;;;;;;8.00;3.55;;;27.70;74.70;;;;;;7285346;19;20202;-78
2024/03/04 11:17:32;;;;;;;7.40;3.72;;;28.00;71.30;;;;;;7286622;19;20545;-78
2024/03/04 11:19:59;;;;;;;7.68;3.42;;;27.90;69.60;;;;;;7283913;19;20656;-78
2024/03/04 11:22:25;;;;;;;7.45;3.10;;;28.60;67.30;;;;;;7283852;19;20176;-78
2024/03/04 11:24:52;;;;;;;8.48;3.28;;;27.30;66.60;;;;;;7284927;19;20635;-78
2024/03/04 11:27:19;;;;;;;7.43;3.50;;;27.80;64.50;;;;;;7284050;19;20194;-78
2024/03/04 11:29:47;;;;;;;6.85;3.00;;;27.30;65.10;;;;;;7281995;19;20926;-79
2024/03/04 11:32:13;;;;;;;9.23;3.58;;;27.80;64.20;;;;;;7283259;19;20193;-79
2024/03/04 11:35:07;;;;;;;8.07;3.22;;;26.70;64.20;;;;;;7282364;19;20683;-78
2024/03/04 11:38:04;;;;;;;7.20;2.90;;;27.30;64.40;;;;;;7259823;19;20630;-78
2024/03/04 11:40:29;;;;;;;6.18;3.10;;;27.50;63.40;;;;;;7283171;19;20200;-77
2024/03/04 11:42:55;;;;;;;8.45;3.10;;;28.10;60.90;;;;;;7285736;19;20181;-79
2024/03/04 11:45:29;;;;;;;8.82;3.30;;;27.60;60.20;;;;;;7285260;19;20260;-79
2024/03/04 11:47:55;;;;;;;6.07;2.88;;;27.60;62.00;;;;;;7284366;19;20711;-78
2024/03/04 11:50:42;;;;;;;6.72;3.00;;;28.20;61.20;;;;;;7283283;19;20654;-78
2024/03/04 11:53:26;;;;;;;6.22;2.70;;;28.50;58.70;;;;;;7179398;19;2004615;-78
2024/03/04 11:55:53;;;;;;;7.78;2.67;;;29.10;58.00;;;;;;7282451;19;20194;-77
2024/03/04 11:58:18;;;;;;;9.13;3.10;;;28.10;55.60;;;;;;7282702;19;20188;-78
2024/03/04 12:00:45;;;;;;;6.85;2.63;;;27.40;55.00;;;;;;7282103;19;20211;-78
2024/03/04 12:03:14;;;;;;;6.72;2.55;;;27.20;56.60;;;;;;7281223;19;20188;-77
2024/03/04 12:05:41;;;;;;;6.32;2.60;;;26.90;58.40;;;;;;7281703;19;20675;-77
2024/03/04 12:08:11;;;;;;;6.07;2.35;;;27.30;57.70;;;;;;7279587;19;20184;-78
2024/03/04 12:10:37;;;;;;;3.92;1.98;;;27.20;55.00;;;;;;7283519;19;20230;-77
2024/03/04 12:13:03;;;;;;;5.50;2.10;;;27.00;53.20;;;;;;7283253;19;20184;-77
2024/03/04 12:15:31;;;;;;;9.15;2.90;;;26.50;55.00;;;;;;7305700;19;20309;-78
2024/03/04 12:17:56;;;;;;;7.90;3.03;;;26.00;58.50;;;;;;7284051;19;20663;-78
2024/03/04 12:20:26;;;;;;;6.53;2.67;;;26.20;59.90;;;;;;7282659;19;20193;-78
2024/03/04 12:22:52;;;;;;;7.05;2.30;;;26.40;58.90;;;;;;7280081;19;20185;-78
2024/03/04 12:25:22;;;;;;;8.68;2.80;;;26.30;56.80;;;;;;7283232;19;20216;-78
2024/03/04 12:27:53;;;;;;;7.38;2.88;;;26.20;57.30;;;;;;7280516;19;20550;-78
2024/03/04 12:30:21;;;;;;;9.38;2.75;;;26.30;57.00;;;;;;7278621;19;20293;-78
2024/03/04 12:32:50;;;;;;;9.80;2.55;;;26.50;57.80;;;;;;7282100;19;20212;-78
2024/03/04 12:35:27;;;;;;;6.72;2.80;;;25.60;57.50;;;;;;7281216;19;20188;-78
2024/03/04 12:37:54;;;;;;;9.90;2.95;;;25.40;59.40;;;;;;7282356;19;20277;-79
2024/03/04 12:40:22;;;;;;;7.85;2.45;;;25.00;59.70;;;;;;7280967;19;20200;-76